createdAt,value
2019-03-19T00:01:47.325Z,0.90
2019-03-19T00:04:16.848Z,0.90
2019-03-19T00:06:46.382Z,0.80
2019-03-19T00:09:16.482Z,0.80
2019-03-19T00:11:46.486Z,0.80
2019-03-19T00:14:17.017Z,0.80
2019-03-19T00:16:46.569Z,0.80
2019-03-19T00:19:16.521Z,0.80
2019-03-19T00:21:46.032Z,0.70
2019-03-19T00:24:15.910Z,0.70
2019-03-19T00:26:47.394Z,0.70
2019-03-19T00:29:18.285Z,0.70
2019-03-19T00:31:48.948Z,0.60
2019-03-19T00:34:19.199Z,0.60
2019-03-19T00:36:49.264Z,0.60
2019-03-19T00:39:18.876Z,0.60
2019-03-19T00:41:48.668Z,0.60
2019-03-19T00:44:21.208Z,0.50
2019-03-19T00:46:51.117Z,0.50
2019-03-19T00:49:20.765Z,0.50
2019-03-19T00:51:50.439Z,0.50
2019-03-19T00:54:20.041Z,0.50
2019-03-19T00:56:49.680Z,0.50
2019-03-19T00:59:20.212Z,0.40
2019-03-19T01:01:53.254Z,0.40
2019-03-19T01:04:22.787Z,0.40
2019-03-19T01:06:53.711Z,0.40
2019-03-19T01:09:23.327Z,0.40
2019-03-19T01:11:52.979Z,0.30
2019-03-19T01:14:22.741Z,0.30
2019-03-19T01:16:53.063Z,0.30
2019-03-19T01:19:22.684Z,0.20
2019-03-19T01:21:52.207Z,0.20
2019-03-19T01:24:21.741Z,0.20
2019-03-19T01:26:51.717Z,0.20
2019-03-19T01:29:22.009Z,0.20
2019-03-19T01:31:52.607Z,0.20
2019-03-19T01:34:22.200Z,0.20
2019-03-19T01:36:53.049Z,0.20
2019-03-19T01:39:22.629Z,0.20
2019-03-19T01:41:52.179Z,0.20
2019-03-19T01:44:21.776Z,0.10
2019-03-19T01:46:51.941Z,0.10
2019-03-19T01:49:21.754Z,0.10
2019-03-19T01:51:51.397Z,0.00
2019-03-19T01:54:21.183Z,0.00
2019-03-19T01:56:50.796Z,0.00
2019-03-19T01:59:20.402Z,0.00
2019-03-19T02:01:50.489Z,0.00
2019-03-19T02:04:21.208Z,-0.10
2019-03-19T02:06:51.413Z,-0.10
2019-03-19T02:09:21.028Z,-0.10
2019-03-19T02:11:50.593Z,-0.10
2019-03-19T02:14:20.419Z,-0.10
2019-03-19T02:16:50.120Z,-0.10
2019-03-19T02:19:21.772Z,-0.10
2019-03-19T02:21:51.479Z,-0.10
2019-03-19T02:24:21.671Z,-0.10
2019-03-19T02:26:51.645Z,-0.20
2019-03-19T02:29:21.920Z,-0.20
2019-03-19T02:31:51.567Z,-0.20
2019-03-19T02:34:23.553Z,-0.20
2019-03-19T02:36:53.322Z,-0.20
2019-03-19T02:39:22.908Z,-0.20
2019-03-19T02:41:53.540Z,-0.20
2019-03-19T02:44:23.206Z,-0.20
2019-03-19T02:46:52.779Z,-0.30
2019-03-19T02:49:23.409Z,-0.30
2019-03-19T02:51:53.707Z,-0.30
2019-03-19T02:54:23.310Z,-0.30
2019-03-19T02:56:52.857Z,-0.30
2019-03-19T02:59:22.421Z,-0.30
2019-03-19T03:01:52.005Z,-0.30
2019-03-19T03:04:22.789Z,-0.40
2019-03-19T03:06:52.842Z,-0.40
2019-03-19T03:09:24.440Z,-0.40
2019-03-19T03:11:53.982Z,-0.40
2019-03-19T03:14:23.507Z,-0.40
2019-03-19T03:16:53.081Z,-0.40
2019-03-19T03:19:22.673Z,-0.40
2019-03-19T03:21:54.578Z,-0.50
2019-03-19T03:24:24.090Z,-0.50
2019-03-19T03:26:54.207Z,-0.60
2019-03-19T03:29:23.726Z,-0.60
2019-03-19T03:31:53.754Z,-0.60
2019-03-19T03:34:23.426Z,-0.60
2019-03-19T03:36:54.127Z,-0.60
2019-03-19T03:39:23.629Z,-0.60
2019-03-19T03:41:53.149Z,-0.70
2019-03-19T03:44:22.782Z,-0.70
2019-03-19T03:46:52.289Z,-0.70
2019-03-19T03:49:21.852Z,-0.70
2019-03-19T03:51:51.637Z,-0.70
2019-03-19T03:54:21.606Z,-0.70
2019-03-19T03:57:02.056Z,-0.70
2019-03-19T03:59:22.848Z,-0.70
2019-03-19T04:01:52.351Z,-0.70
2019-03-19T04:04:21.877Z,-0.70
2019-03-19T04:06:51.464Z,-0.70
2019-03-19T04:09:21.162Z,-0.70
2019-03-19T04:11:50.821Z,-0.70
2019-03-19T04:14:20.325Z,-0.70
2019-03-19T04:16:49.836Z,-0.70
2019-03-19T04:19:20.350Z,-0.80
2019-03-19T04:21:49.910Z,-0.80
2019-03-19T04:24:20.801Z,-0.80
2019-03-19T04:26:50.509Z,-0.80
2019-03-19T04:29:20.171Z,-0.80
2019-03-19T04:31:49.844Z,-0.80
2019-03-19T04:34:19.337Z,-0.80
2019-03-19T04:36:48.866Z,-0.80
2019-03-19T04:39:20.288Z,-0.80
2019-03-19T04:41:49.849Z,-0.80
2019-03-19T04:44:19.362Z,-0.80
2019-03-19T04:46:48.969Z,-0.80
2019-03-19T04:49:18.517Z,-0.90
2019-03-19T04:51:48.032Z,-0.90
2019-03-19T04:54:19.090Z,-0.80
2019-03-19T04:56:48.681Z,-0.80
2019-03-19T04:59:18.381Z,-0.90
2019-03-19T05:01:47.912Z,-0.90
2019-03-19T05:04:17.417Z,-1.00
2019-03-19T05:06:46.931Z,-1.00
2019-03-19T05:09:17.187Z,-1.00
2019-03-19T05:11:47.469Z,-1.00
2019-03-19T05:14:17.074Z,-0.90
2019-03-19T05:16:46.790Z,-0.90
2019-03-19T05:19:16.285Z,-0.90
2019-03-19T05:21:45.827Z,-0.90
2019-03-19T05:24:15.335Z,-0.90
2019-03-19T05:26:45.291Z,-0.80
2019-03-19T05:29:14.779Z,-0.80
2019-03-19T05:31:44.794Z,-0.80
2019-03-19T05:34:14.350Z,-0.80
2019-03-19T05:36:43.904Z,-0.90
2019-03-19T05:39:13.421Z,-0.90
2019-03-19T05:41:44.266Z,-0.90
2019-03-19T05:44:13.873Z,-0.90
2019-03-19T05:46:43.743Z,-1.00
2019-03-19T05:49:13.288Z,-1.00
2019-03-19T05:51:42.847Z,-0.90
2019-03-19T05:54:12.404Z,-1.00
2019-03-19T05:56:42.376Z,-1.00
2019-03-19T05:59:11.923Z,-1.00
2019-03-19T06:01:41.639Z,-0.90
2019-03-19T06:04:11.141Z,-0.90
2019-03-19T06:06:40.654Z,-0.80
2019-03-19T06:09:10.300Z,-0.80
2019-03-19T06:11:40.081Z,-0.80
2019-03-19T06:14:10.032Z,-0.80
2019-03-19T06:16:39.642Z,-0.80
2019-03-19T06:19:09.138Z,-0.70
2019-03-19T06:21:38.712Z,-0.70
2019-03-19T06:24:08.300Z,-0.60
2019-03-19T06:26:37.823Z,-0.50
2019-03-19T06:29:08.232Z,-0.40
2019-03-19T06:31:37.735Z,-0.30
2019-03-19T06:34:07.320Z,-0.20
2019-03-19T06:36:37.002Z,-0.10
2019-03-19T06:39:07.563Z,0.10
2019-03-19T06:41:37.356Z,0.10
2019-03-19T06:44:07.739Z,0.20
2019-03-19T06:46:38.088Z,0.30
2019-03-19T06:49:07.714Z,0.40
2019-03-19T06:51:37.289Z,0.60
2019-03-19T06:54:07.161Z,0.70
2019-03-19T06:56:36.740Z,0.80
2019-03-19T06:59:06.262Z,0.90
2019-03-19T07:01:38.507Z,1.00
2019-03-19T07:04:08.091Z,1.20
2019-03-19T07:06:37.631Z,1.40
2019-03-19T07:09:08.161Z,1.70
2019-03-19T07:11:37.764Z,1.90
2019-03-19T07:14:07.638Z,2.10
2019-03-19T07:16:37.388Z,2.30
2019-03-19T07:19:06.939Z,2.50
2019-03-19T07:21:36.433Z,2.60
2019-03-19T07:24:05.982Z,2.80
2019-03-19T07:26:35.483Z,2.90
2019-03-19T07:29:05.018Z,3.10
2019-03-19T07:31:35.256Z,3.20
2019-03-19T07:34:04.785Z,3.30
2019-03-19T07:36:35.473Z,3.40
2019-03-19T07:39:07.763Z,3.40
2019-03-19T07:41:37.299Z,3.40
2019-03-19T07:44:07.188Z,3.50
2019-03-19T07:46:37.321Z,3.60
2019-03-19T07:49:06.828Z,3.60
2019-03-19T07:51:36.877Z,3.80
2019-03-19T07:54:06.382Z,3.80
2019-03-19T07:56:35.905Z,3.90
2019-03-19T07:59:05.428Z,4.00
2019-03-19T08:01:35.822Z,4.10
2019-03-19T08:04:05.940Z,4.20
2019-03-19T08:06:35.442Z,4.30
2019-03-19T08:09:07.075Z,4.40
2019-03-19T08:11:37.730Z,4.50
2019-03-19T08:14:07.231Z,4.60
2019-03-19T08:16:37.244Z,4.70
2019-03-19T08:19:06.798Z,4.80
2019-03-19T08:21:36.578Z,5.00
2019-03-19T08:24:06.096Z,5.10
2019-03-19T08:26:37.627Z,5.30
2019-03-19T08:29:07.184Z,5.40
2019-03-19T08:31:36.773Z,5.50
2019-03-19T08:34:06.264Z,5.60
2019-03-19T08:36:36.121Z,5.70
2019-03-19T08:39:06.867Z,5.80
2019-03-19T08:41:36.343Z,5.90
2019-03-19T08:44:06.176Z,6.00
2019-03-19T08:46:35.853Z,6.10
2019-03-19T08:49:06.634Z,6.10
2019-03-19T08:51:36.346Z,6.40
2019-03-19T08:54:05.937Z,6.40
2019-03-19T08:56:35.433Z,6.50
2019-03-19T08:59:06.156Z,6.60
2019-03-19T09:01:35.812Z,6.80
2019-03-19T09:04:07.434Z,7.00
2019-03-19T09:06:37.183Z,7.20
2019-03-19T09:09:08.553Z,7.40
2019-03-19T09:11:38.064Z,7.50
2019-03-19T09:14:08.148Z,7.70
2019-03-19T09:16:37.872Z,7.90
2019-03-19T09:19:07.637Z,8.10
2019-03-19T09:21:37.199Z,8.30
2019-03-19T09:24:06.777Z,8.40
2019-03-19T09:26:36.615Z,8.60
2019-03-19T09:29:16.065Z,8.80
2019-03-19T09:31:37.604Z,8.90
2019-03-19T09:34:07.850Z,9.10
2019-03-19T09:36:37.490Z,9.30
2019-03-19T09:39:08.000Z,9.40
2019-03-19T09:41:39.812Z,9.50
2019-03-19T09:44:09.367Z,9.60
2019-03-19T09:46:38.861Z,9.80
2019-03-19T09:49:08.388Z,9.90
2019-03-19T09:51:38.369Z,10.00
2019-03-19T09:54:07.928Z,10.20
2019-03-19T09:56:37.444Z,10.40
2019-03-19T09:59:06.988Z,10.50
2019-03-19T10:01:36.624Z,10.60
2019-03-19T10:04:06.598Z,10.60
2019-03-19T10:06:36.098Z,10.80
2019-03-19T10:09:07.608Z,10.70
2019-03-19T10:11:37.199Z,10.60
2019-03-19T10:14:06.690Z,10.50
2019-03-19T10:16:36.327Z,10.60
2019-03-19T10:19:07.152Z,10.80
2019-03-19T10:21:36.826Z,10.80
2019-03-19T10:24:06.526Z,10.80
2019-03-19T10:26:36.061Z,11.00
2019-03-19T10:29:06.640Z,11.00
2019-03-19T10:31:36.205Z,11.10
2019-03-19T10:34:05.806Z,11.20
2019-03-19T10:36:35.401Z,11.20
2019-03-19T10:39:09.041Z,11.30
2019-03-19T10:41:38.712Z,11.30
2019-03-19T10:44:08.274Z,11.50
2019-03-19T10:46:37.769Z,11.50
2019-03-19T10:49:07.310Z,11.60
2019-03-19T10:51:39.046Z,11.80
2019-03-19T10:54:08.608Z,12.00
2019-03-19T10:56:39.042Z,12.10
2019-03-19T10:59:08.643Z,12.30
2019-03-19T11:01:38.223Z,12.50
2019-03-19T11:04:08.014Z,12.40
2019-03-19T11:06:37.509Z,12.50
2019-03-19T11:09:07.692Z,12.70
2019-03-19T11:11:38.353Z,12.50
2019-03-19T11:14:08.007Z,12.60
2019-03-19T11:16:37.717Z,12.60
2019-03-19T11:19:07.307Z,12.60
2019-03-19T11:21:36.799Z,12.40
2019-03-19T11:24:06.295Z,12.30
2019-03-19T11:26:35.937Z,12.40
2019-03-19T11:29:05.485Z,12.50
2019-03-19T11:31:35.031Z,12.70
2019-03-19T11:34:04.588Z,12.70
2019-03-19T11:36:34.148Z,12.60
2019-03-19T11:39:05.657Z,12.70
2019-03-19T11:41:35.268Z,12.90
2019-03-19T11:44:06.221Z,13.00
2019-03-19T11:46:35.734Z,13.10
2019-03-19T11:49:07.314Z,13.10
2019-03-19T11:51:37.757Z,12.90
2019-03-19T11:54:07.696Z,12.60
2019-03-19T11:56:37.255Z,12.40
2019-03-19T11:59:07.112Z,12.30
2019-03-19T12:01:36.737Z,12.20
2019-03-19T12:04:07.790Z,11.90
2019-03-19T12:06:37.403Z,12.10
2019-03-19T12:09:07.518Z,12.30
2019-03-19T12:11:37.115Z,12.60
2019-03-19T12:14:07.874Z,12.90
2019-03-19T12:16:37.380Z,13.20
2019-03-19T12:19:07.834Z,13.40
2019-03-19T12:21:37.472Z,13.40
2019-03-19T12:24:06.961Z,13.50
2019-03-19T12:26:36.507Z,13.70
2019-03-19T12:29:08.670Z,13.70
2019-03-19T12:31:38.341Z,13.90
2019-03-19T12:34:07.846Z,14.00
2019-03-19T12:36:37.418Z,14.20
2019-03-19T12:39:09.806Z,14.30
2019-03-19T12:41:39.444Z,14.50
2019-03-19T12:44:09.165Z,14.50
2019-03-19T12:46:38.940Z,14.60
2019-03-19T12:49:08.545Z,14.50
2019-03-19T12:51:38.325Z,14.60
2019-03-19T12:54:09.018Z,14.80
2019-03-19T12:56:38.506Z,14.70
2019-03-19T12:59:19.385Z,14.60
2019-03-19T13:01:39.403Z,14.60
2019-03-19T13:04:09.137Z,14.70
2019-03-19T13:06:38.662Z,14.70
2019-03-19T13:09:08.946Z,14.90
2019-03-19T13:11:38.493Z,15.00
2019-03-19T13:14:08.101Z,15.30
2019-03-19T13:16:37.589Z,15.20
2019-03-19T13:19:13.375Z,15.20
2019-03-19T13:21:42.880Z,15.20
2019-03-19T13:24:12.392Z,15.10
2019-03-19T13:26:41.886Z,14.80
2019-03-19T13:29:11.443Z,14.80
2019-03-19T13:31:41.910Z,14.90
2019-03-19T13:34:13.145Z,14.70
2019-03-19T13:36:43.065Z,14.60
2019-03-19T13:39:12.593Z,14.70
2019-03-19T13:41:42.250Z,14.60
2019-03-19T13:44:11.775Z,14.50
2019-03-19T13:46:41.546Z,14.30
2019-03-19T13:49:11.033Z,14.20
2019-03-19T13:51:40.527Z,14.20
2019-03-19T13:54:11.564Z,14.30
2019-03-19T13:56:41.065Z,14.40
2019-03-19T13:59:10.549Z,14.50
2019-03-19T14:01:40.110Z,14.40
2019-03-19T14:04:09.744Z,14.50
2019-03-19T14:06:39.244Z,14.70
2019-03-19T14:09:08.828Z,14.50
2019-03-19T14:11:39.284Z,14.50
2019-03-19T14:14:08.796Z,14.40
2019-03-19T14:16:39.273Z,14.40
2019-03-19T14:19:08.752Z,14.30
2019-03-19T14:21:38.338Z,14.30
2019-03-19T14:24:07.870Z,14.00
2019-03-19T14:26:37.366Z,13.80
2019-03-19T14:29:06.895Z,13.70
2019-03-19T14:31:36.384Z,13.70
2019-03-19T14:34:05.872Z,13.90
2019-03-19T14:36:35.431Z,14.00
2019-03-19T14:39:07.235Z,14.10
2019-03-19T14:41:38.813Z,14.10
2019-03-19T14:44:08.311Z,13.90
2019-03-19T14:46:38.811Z,13.90
2019-03-19T14:49:08.337Z,13.90
2019-03-19T14:51:37.821Z,14.00
2019-03-19T14:54:07.344Z,14.00
2019-03-19T14:56:36.841Z,14.10
2019-03-19T14:59:06.328Z,14.20
2019-03-19T15:01:35.856Z,14.20
2019-03-19T15:04:05.443Z,14.10
2019-03-19T15:06:34.957Z,14.00
2019-03-19T15:09:06.433Z,13.90
2019-03-19T15:11:36.103Z,13.90
2019-03-19T15:14:05.602Z,13.90
2019-03-19T15:16:35.092Z,13.90
2019-03-19T15:19:04.950Z,13.90
2019-03-19T15:21:34.443Z,13.90
2019-03-19T15:24:04.026Z,14.00
2019-03-19T15:26:33.574Z,14.00
2019-03-19T15:29:03.075Z,13.70
2019-03-19T15:31:32.572Z,13.60
2019-03-19T15:34:02.124Z,13.50
2019-03-19T15:36:31.893Z,13.40
2019-03-19T15:39:01.396Z,13.30
2019-03-19T15:41:30.993Z,13.10
2019-03-19T15:44:00.483Z,12.90
2019-03-19T15:46:29.981Z,12.80
2019-03-19T15:49:00.542Z,12.70
2019-03-19T15:51:30.064Z,12.70
2019-03-19T15:53:59.559Z,12.60
2019-03-19T15:56:29.072Z,12.60
2019-03-19T15:58:58.632Z,12.60
2019-03-19T16:01:28.133Z,12.50
2019-03-19T16:03:57.653Z,12.40
2019-03-19T16:06:27.166Z,12.40
2019-03-19T16:08:56.656Z,12.50
2019-03-19T16:11:26.166Z,12.60
2019-03-19T16:13:55.719Z,12.70
2019-03-19T16:16:25.213Z,12.60
2019-03-19T16:18:54.739Z,12.60
2019-03-19T16:21:24.228Z,12.70
2019-03-19T16:23:53.736Z,12.70
2019-03-19T16:26:23.432Z,12.70
2019-03-19T16:28:52.925Z,12.70
2019-03-19T16:31:22.477Z,12.70
2019-03-19T16:33:52.009Z,12.70
2019-03-19T16:36:21.526Z,12.40
2019-03-19T16:38:51.049Z,12.40
2019-03-19T16:41:20.549Z,12.20
2019-03-19T16:43:50.125Z,12.20
2019-03-19T16:46:22.098Z,12.10
2019-03-19T16:48:51.601Z,12.10
2019-03-19T16:51:21.113Z,12.00
2019-03-19T16:53:50.613Z,12.00
2019-03-19T16:56:20.130Z,11.90
2019-03-19T16:58:49.626Z,11.80
2019-03-19T17:01:19.106Z,11.80
2019-03-19T17:03:48.680Z,11.70
2019-03-19T17:06:18.163Z,11.70
2019-03-19T17:08:48.665Z,11.60
2019-03-19T17:11:18.149Z,11.50
2019-03-19T17:13:47.643Z,11.40
2019-03-19T17:16:17.172Z,11.40
2019-03-19T17:18:49.683Z,11.30
2019-03-19T17:21:19.198Z,11.20
2019-03-19T17:23:48.715Z,11.00
2019-03-19T17:26:18.362Z,10.90
2019-03-19T17:28:47.866Z,10.80
2019-03-19T17:31:17.359Z,10.60
2019-03-19T17:33:46.884Z,10.40
2019-03-19T17:36:16.390Z,10.30
2019-03-19T17:38:45.881Z,10.10
2019-03-19T17:41:15.418Z,10.00
2019-03-19T17:43:44.901Z,9.90
2019-03-19T17:46:14.391Z,9.70
2019-03-19T17:48:43.919Z,9.60
2019-03-19T17:51:13.573Z,9.50
2019-03-19T17:53:43.086Z,9.30
2019-03-19T17:56:12.612Z,9.20
2019-03-19T17:58:42.101Z,9.00
2019-03-19T18:01:17.445Z,8.90
2019-03-19T18:03:43.834Z,8.80
2019-03-19T18:06:13.356Z,8.60
2019-03-19T18:08:42.868Z,8.50
2019-03-19T18:11:12.357Z,8.40
2019-03-19T18:13:42.064Z,8.30
2019-03-19T18:16:11.747Z,8.20
2019-03-19T18:18:41.233Z,8.20
2019-03-19T18:21:10.729Z,8.10
2019-03-19T18:23:40.250Z,8.00
2019-03-19T18:26:09.748Z,7.90
2019-03-19T18:28:39.309Z,7.80
2019-03-19T18:31:08.839Z,7.60
2019-03-19T18:33:39.313Z,7.60
2019-03-19T18:36:08.800Z,7.50
2019-03-19T18:38:38.313Z,7.40
2019-03-19T18:41:07.798Z,7.30
2019-03-19T18:43:37.325Z,7.20
2019-03-19T18:46:06.820Z,7.20
2019-03-19T18:48:36.312Z,7.10
2019-03-19T18:51:05.841Z,7.00
2019-03-19T18:53:35.349Z,6.90
2019-03-19T18:56:04.843Z,6.80
2019-03-19T18:58:34.364Z,6.70
2019-03-19T19:01:04.124Z,6.70
2019-03-19T19:03:33.655Z,6.60
2019-03-19T19:06:03.137Z,6.60
2019-03-19T19:08:32.650Z,6.50
2019-03-19T19:11:04.450Z,6.40
2019-03-19T19:13:33.936Z,6.30
2019-03-19T19:16:03.480Z,6.30
2019-03-19T19:18:32.972Z,6.20
2019-03-19T19:21:02.449Z,6.10
2019-03-19T19:23:32.112Z,6.10
2019-03-19T19:26:01.605Z,6.00
2019-03-19T19:28:31.260Z,6.00
2019-03-19T19:31:00.786Z,5.90
2019-03-19T19:33:30.309Z,5.90
2019-03-19T19:35:59.796Z,5.80
2019-03-19T19:38:29.328Z,5.80
2019-03-19T19:40:58.820Z,5.70
2019-03-19T19:43:28.335Z,5.70
2019-03-19T19:45:57.841Z,5.60
2019-03-19T19:48:27.352Z,5.60
2019-03-19T19:50:56.878Z,5.50
2019-03-19T19:53:26.401Z,5.50
2019-03-19T19:55:55.881Z,5.40
2019-03-19T19:58:25.411Z,5.40
2019-03-19T20:00:54.919Z,5.30
2019-03-19T20:03:24.496Z,5.30
2019-03-19T20:05:53.988Z,5.30
2019-03-19T20:08:23.509Z,5.20
2019-03-19T20:10:53.035Z,5.20
2019-03-19T20:13:23.500Z,5.20
2019-03-19T20:15:52.988Z,5.10
2019-03-19T20:18:22.518Z,5.10
2019-03-19T20:20:52.013Z,5.00
2019-03-19T20:23:21.505Z,5.00
2019-03-19T20:25:51.020Z,5.00
2019-03-19T20:28:20.532Z,4.90
2019-03-19T20:30:50.052Z,4.90
2019-03-19T20:33:24.729Z,4.80
2019-03-19T20:35:50.729Z,4.80
2019-03-19T20:38:20.406Z,4.80
2019-03-19T20:40:49.898Z,4.80
2019-03-19T20:43:19.391Z,4.80
2019-03-19T20:45:48.897Z,4.80
2019-03-19T20:48:18.385Z,4.70
2019-03-19T20:50:47.884Z,4.70
2019-03-19T20:53:17.372Z,4.70
2019-03-19T20:55:46.890Z,4.70
2019-03-19T20:58:16.393Z,4.70
2019-03-19T21:00:45.884Z,4.60
2019-03-19T21:03:15.570Z,4.60
2019-03-19T21:05:45.080Z,4.50
2019-03-19T21:08:14.582Z,4.50
2019-03-19T21:10:44.113Z,4.50
2019-03-19T21:13:13.604Z,4.50
2019-03-19T21:15:43.101Z,4.40
2019-03-19T21:18:12.654Z,4.30
2019-03-19T21:20:42.137Z,4.30
2019-03-19T21:23:11.632Z,4.20
2019-03-19T21:25:41.165Z,4.20
2019-03-19T21:28:14.283Z,4.20
2019-03-19T21:30:41.848Z,4.10
2019-03-19T21:33:11.732Z,4.10
2019-03-19T21:35:41.298Z,4.10
2019-03-19T21:38:10.780Z,4.00
2019-03-19T21:40:40.315Z,4.00
2019-03-19T21:43:09.800Z,4.00
2019-03-19T21:45:39.452Z,4.00
2019-03-19T21:48:09.012Z,4.00
2019-03-19T21:50:38.501Z,4.00
2019-03-19T21:53:08.034Z,3.90
2019-03-19T21:55:37.528Z,3.90
2019-03-19T21:58:07.024Z,3.90
2019-03-19T22:00:36.561Z,4.00
2019-03-19T22:03:06.068Z,4.00
2019-03-19T22:05:35.561Z,3.90
2019-03-19T22:08:06.021Z,4.00
2019-03-19T22:10:35.521Z,4.00
2019-03-19T22:13:05.146Z,4.00
2019-03-19T22:15:34.953Z,4.00
2019-03-19T22:18:04.584Z,4.00
2019-03-19T22:20:34.078Z,3.90
2019-03-19T22:23:03.733Z,4.00
2019-03-19T22:25:33.250Z,3.90
2019-03-19T22:28:02.755Z,3.90
2019-03-19T22:30:32.265Z,3.90
2019-03-19T22:33:01.768Z,3.90
2019-03-19T22:35:31.426Z,3.90
2019-03-19T22:38:01.313Z,3.90
2019-03-19T22:40:30.794Z,3.90
2019-03-19T22:43:00.370Z,3.90
2019-03-19T22:45:29.852Z,3.90
2019-03-19T22:47:59.342Z,3.90
2019-03-19T22:50:28.867Z,3.90
2019-03-19T22:52:58.389Z,3.80
2019-03-19T22:55:29.303Z,3.80
2019-03-19T22:57:59.202Z,3.90
2019-03-19T23:00:33.120Z,3.80
2019-03-19T23:03:02.685Z,3.90
2019-03-19T23:05:32.276Z,3.90
2019-03-19T23:08:03.352Z,4.00
2019-03-19T23:10:32.956Z,4.10
2019-03-19T23:13:02.591Z,4.00
2019-03-19T23:15:32.109Z,4.10
2019-03-19T23:18:01.589Z,4.10
2019-03-19T23:20:31.385Z,4.20
2019-03-19T23:23:01.826Z,4.20
2019-03-19T23:25:31.593Z,4.10
2019-03-19T23:28:01.214Z,4.10
2019-03-19T23:30:30.748Z,4.10
2019-03-19T23:33:00.299Z,4.00
2019-03-19T23:35:29.803Z,4.00
2019-03-19T23:37:59.289Z,3.90
2019-03-19T23:40:29.004Z,3.90
2019-03-19T23:42:58.562Z,3.90
2019-03-19T23:45:28.057Z,3.90
2019-03-19T23:47:57.600Z,3.90
2019-03-19T23:50:27.081Z,3.80
2019-03-19T23:52:56.595Z,3.80
2019-03-19T23:55:26.126Z,3.80
2019-03-19T23:57:55.620Z,3.70
